Time;durP1;ratioP1;P1;durP2;ratioP2;P2;SDS_P1;SDS_P2;PMS_P1;PMS_P2;Temp;Humidity;BMP_temperature;BMP_pressure;BME280_temperature;BME280_humidity;BME280_pressure;Samples;Min_cycle;Max_cycle;Signal;HPM_P1;HPM_P2
2022/01/29 00:00:25;;;;;;;14.32;3.53;;;;;;;;;;4916207;29;20051;-37
2022/01/29 00:02:52;;;;;;;23.17;3.70;;;;;;;;;;4913671;29;20028;-37
2022/01/29 00:05:19;;;;;;;26.15;4.05;;;;;;;;;;4915182;29;20074;-37
2022/01/29 00:07:46;;;;;;;22.83;4.32;;;;;;;;;;4916169;29;20845;-37
2022/01/29 00:10:14;;;;;;;15.55;3.42;;;;;;;;;;4916262;29;20067;-37
2022/01/29 00:12:41;;;;;;;21.67;4.00;;;;;;;;;;4915721;29;20115;-37
2022/01/29 00:15:09;;;;;;;27.65;3.58;;;;;;;;;;4914407;29;20047;-37
2022/01/29 00:17:36;;;;;;;20.00;3.35;;;;;;;;;;4914578;29;20039;-37
2022/01/29 00:20:03;;;;;;;21.42;3.63;;;;;;;;;;4916047;29;20123;-37
2022/01/29 00:22:30;;;;;;;17.23;3.42;;;;;;;;;;4916608;29;20036;-37
2022/01/29 00:24:58;;;;;;;16.40;4.13;;;;;;;;;;4914925;29;20506;-37
2022/01/29 00:27:28;;;;;;;20.33;3.95;;;;;;;;;;4914423;29;20801;-37
2022/01/29 00:29:56;;;;;;;23.45;4.18;;;;;;;;;;4914594;29;20036;-37
2022/01/29 00:32:23;;;;;;;19.20;3.85;;;;;;;;;;4915573;29;20417;-37
2022/01/29 00:34:50;;;;;;;22.50;3.67;;;;;;;;;;4916304;29;20470;-37
2022/01/29 00:37:17;;;;;;;16.08;3.63;;;;;;;;;;4914621;29;20099;-37
2022/01/29 00:39:44;;;;;;;17.40;3.75;;;;;;;;;;4914379;29;20040;-37
2022/01/29 00:42:13;;;;;;;32.22;4.25;;;;;;;;;;4925178;29;20725;-37
2022/01/29 00:44:40;;;;;;;18.13;3.28;;;;;;;;;;4932015;29;20035;-37
2022/01/29 00:47:07;;;;;;;18.10;3.55;;;;;;;;;;4933161;29;20486;-37
2022/01/29 00:49:34;;;;;;;24.95;3.75;;;;;;;;;;4933471;29;20043;-37
2022/01/29 00:52:01;;;;;;;22.45;3.75;;;;;;;;;;4927135;29;20043;-37
2022/01/29 00:54:28;;;;;;;15.32;3.83;;;;;;;;;;4933890;29;20035;-38
2022/01/29 00:56:55;;;;;;;15.57;3.28;;;;;;;;;;4933430;29;20047;-37
2022/01/29 00:59:22;;;;;;;22.48;3.97;;;;;;;;;;4933230;29;20135;-37
2022/01/29 01:01:50;;;;;;;20.02;3.35;;;;;;;;;;4927274;29;20119;-37
2022/01/29 01:04:17;;;;;;;21.27;3.50;;;;;;;;;;4931193;29;20508;-37
2022/01/29 01:06:44;;;;;;;19.52;3.40;;;;;;;;;;4930524;29;20055;-37
2022/01/29 01:09:11;;;;;;;24.92;3.53;;;;;;;;;;4926865;29;20389;-37
2022/01/29 01:11:38;;;;;;;28.83;3.67;;;;;;;;;;4922479;29;20149;-37
2022/01/29 01:14:05;;;;;;;24.75;3.50;;;;;;;;;;4930908;29;20051;-37
2022/01/29 01:16:32;;;;;;;30.23;3.92;;;;;;;;;;4931892;29;20397;-37
2022/01/29 01:19:00;;;;;;;26.65;3.58;;;;;;;;;;4932928;29;20115;-37
2022/01/29 01:21:27;;;;;;;29.67;4.72;;;;;;;;;;4932790;29;20079;-37
2022/01/29 01:23:55;;;;;;;23.85;3.70;;;;;;;;;;4933039;29;20039;-37
2022/01/29 01:26:22;;;;;;;22.88;3.28;;;;;;;;;;4930669;29;20497;-37
2022/01/29 01:28:49;;;;;;;17.63;3.53;;;;;;;;;;4933687;29;20508;-37
2022/01/29 01:31:16;;;;;;;17.63;3.67;;;;;;;;;;4928278;29;20038;-37
2022/01/29 01:33:44;;;;;;;16.15;3.13;;;;;;;;;;4926773;29;20031;-38
2022/01/29 01:36:13;;;;;;;15.00;3.38;;;;;;;;;;4932678;29;20051;-38
2022/01/29 01:38:47;;;;;;;15.63;3.08;;;;;;;;;;4927062;29;20039;-38
2022/01/29 01:41:22;;;;;;;18.38;3.80;;;;;;;;;;4931662;29;20051;-38
2022/01/29 01:43:49;;;;;;;19.13;3.63;;;;;;;;;;4927302;29;20410;-37
2022/01/29 01:46:16;;;;;;;20.13;3.55;;;;;;;;;;4929071;29;20443;-38
2022/01/29 01:48:43;;;;;;;35.17;10.73;;;;;;;;;;4932779;29;20028;-38
2022/01/29 01:51:11;;;;;;;28.50;7.18;;;;;;;;;;4931604;29;20086;-38
2022/01/29 01:53:38;;;;;;;54.95;13.50;;;;;;;;;;4933421;29;20401;-37
2022/01/29 01:56:05;;;;;;;37.22;9.68;;;;;;;;;;4933441;29;20545;-38
2022/01/29 01:58:32;;;;;;;33.85;8.20;;;;;;;;;;4932872;29;20080;-38
2022/01/29 02:00:59;;;;;;;38.22;10.23;;;;;;;;;;4933291;29;20575;-38
2022/01/29 02:03:26;;;;;;;30.13;7.10;;;;;;;;;;4931609;29;20056;-37
2022/01/29 02:05:53;;;;;;;35.53;9.75;;;;;;;;;;4933388;29;20036;-37
2022/01/29 02:08:20;;;;;;;27.58;7.88;;;;;;;;;;4933170;29;20063;-37
2022/01/29 02:10:49;;;;;;;29.88;7.82;;;;;;;;;;4933459;29;20023;-37
2022/01/29 02:13:16;;;;;;;25.42;7.78;;;;;;;;;;4931176;29;20406;-37
2022/01/29 02:15:43;;;;;;;18.05;6.15;;;;;;;;;;4932142;29;20410;-37
2022/01/29 02:18:13;;;;;;;25.92;6.10;;;;;;;;;;4933172;29;20099;-38
2022/01/29 02:20:40;;;;;;;29.00;6.35;;;;;;;;;;4932621;29;20101;-37
2022/01/29 02:23:07;;;;;;;21.70;5.88;;;;;;;;;;4933304;29;20032;-37
2022/01/29 02:25:42;;;;;;;23.70;6.10;;;;;;;;;;4931164;29;20489;-37
2022/01/29 02:28:16;;;;;;;25.27;6.75;;;;;;;;;;4932574;29;20517;-37
2022/01/29 02:30:45;;;;;;;34.13;6.90;;;;;;;;;;4933291;29;20168;-37
2022/01/29 02:33:14;;;;;;;20.35;5.05;;;;;;;;;;4932703;29;20082;-37
2022/01/29 02:35:42;;;;;;;27.65;5.30;;;;;;;;;;4933147;29;20076;-37
2022/01/29 02:38:10;;;;;;;27.90;5.28;;;;;;;;;;4930691;29;20024;-37
2022/01/29 02:40:51;;;;;;;23.48;4.90;;;;;;;;;;4933116;29;20046;-37
2022/01/29 02:43:24;;;;;;;26.80;4.70;;;;;;;;;;4933428;29;20127;-37
2022/01/29 02:45:52;;;;;;;20.73;5.32;;;;;;;;;;4932261;29;20039;-37
2022/01/29 02:48:23;;;;;;;18.50;4.70;;;;;;;;;;4932684;29;20126;-37
2022/01/29 02:50:50;;;;;;;18.08;3.92;;;;;;;;;;4931012;29;20040;-37
2022/01/29 02:53:17;;;;;;;19.17;3.92;;;;;;;;;;4935227;29;20042;-37
2022/01/29 02:55:44;;;;;;;18.42;3.50;;;;;;;;;;4937044;29;20040;-37
2022/01/29 02:58:11;;;;;;;18.95;3.92;;;;;;;;;;4935727;29;20082;-37
2022/01/29 03:00:38;;;;;;;14.45;3.65;;;;;;;;;;4935081;29;20023;-37
2022/01/29 03:03:06;;;;;;;14.15;3.30;;;;;;;;;;4934906;29;20394;-37
2022/01/29 03:05:33;;;;;;;15.48;3.58;;;;;;;;;;4936419;29;20039;-36
2022/01/29 03:08:00;;;;;;;12.95;3.22;;;;;;;;;;4936249;29;20024;-37
2022/01/29 03:10:28;;;;;;;12.98;3.30;;;;;;;;;;4936180;29;20043;-37
2022/01/29 03:12:55;;;;;;;12.38;3.70;;;;;;;;;;4934663;29;20039;-36
2022/01/29 03:15:22;;;;;;;15.40;3.45;;;;;;;;;;4935042;29;20039;-37
2022/01/29 03:17:49;;;;;;;11.90;2.78;;;;;;;;;;4935614;29;20385;-36
2022/01/29 03:20:16;;;;;;;10.43;2.97;;;;;;;;;;4935535;29;20079;-37
2022/01/29 03:22:43;;;;;;;9.88;2.90;;;;;;;;;;4936223;29;20023;-36
2022/01/29 03:25:10;;;;;;;12.77;3.35;;;;;;;;;;4934191;29;20031;-37
2022/01/29 03:27:38;;;;;;;11.93;2.70;;;;;;;;;;4935343;29;20075;-37
2022/01/29 03:30:05;;;;;;;8.43;2.22;;;;;;;;;;4935717;29;20030;-37
2022/01/29 03:32:32;;;;;;;12.90;2.95;;;;;;;;;;4935791;29;20027;-37
2022/01/29 03:35:00;;;;;;;11.88;2.63;;;;;;;;;;4936052;29;20059;-37
2022/01/29 03:37:27;;;;;;;11.65;2.97;;;;;;;;;;4933327;29;20042;-37
2022/01/29 03:39:58;;;;;;;10.75;2.28;;;;;;;;;;4933348;29;20046;-34
2022/01/29 03:42:27;;;;;;;10.40;2.08;;;;;;;;;;4934847;29;20039;-38
2022/01/29 03:44:55;;;;;;;16.48;1.85;;;;;;;;;;4929258;29;20367;-38
2022/01/29 03:47:22;;;;;;;5.05;1.65;;;;;;;;;;4935275;29;20067;-35
2022/01/29 03:49:49;;;;;;;7.03;1.60;;;;;;;;;;4934050;29;20107;-38
2022/01/29 03:52:16;;;;;;;5.97;1.40;;;;;;;;;;4937012;29;20063;-37
2022/01/29 03:54:43;;;;;;;11.68;1.70;;;;;;;;;;4935323;29;20578;-37
2022/01/29 03:57:10;;;;;;;6.65;1.23;;;;;;;;;;4934528;29;20561;-34
2022/01/29 03:59:37;;;;;;;16.05;1.80;;;;;;;;;;4934232;29;20063;-40
2022/01/29 04:02:05;;;;;;;24.00;2.58;;;;;;;;;;4932918;29;20032;-39
2022/01/29 04:04:32;;;;;;;18.00;2.53;;;;;;;;;;4933998;29;20024;-35
2022/01/29 04:07:05;;;;;;;13.20;2.25;;;;;;;;;;4934725;29;20032;-35
2022/01/29 04:09:32;;;;;;;12.90;2.22;;;;;;;;;;4934277;29;20106;-37
2022/01/29 04:11:59;;;;;;;9.10;1.85;;;;;;;;;;4933490;29;20044;-45
2022/01/29 04:14:33;;;;;;;7.03;1.45;;;;;;;;;;4932330;29;20497;-36
2022/01/29 04:17:00;;;;;;;5.22;1.40;;;;;;;;;;4934160;29;20102;-36
2022/01/29 04:19:27;;;;;;;6.18;1.35;;;;;;;;;;4934734;29;20043;-36
2022/01/29 04:21:54;;;;;;;9.57;1.63;;;;;;;;;;4934763;29;20494;-37
2022/01/29 04:24:21;;;;;;;10.65;1.83;;;;;;;;;;4933622;29;20079;-36
2022/01/29 04:26:48;;;;;;;15.32;1.55;;;;;;;;;;4934100;29;20135;-35
2022/01/29 04:29:15;;;;;;;8.00;1.40;;;;;;;;;;4934025;29;20039;-36
2022/01/29 04:32:05;;;;;;;7.40;1.38;;;;;;;;;;4934965;29;20122;-38
2022/01/29 04:34:29;;;;;;;20.20;2.97;;;;;;;;;;4934268;29;20135;-36
2022/01/29 04:36:56;;;;;;;15.95;2.22;;;;;;;;;;4932544;29;20040;-35
2022/01/29 04:39:23;;;;;;;14.20;2.00;;;;;;;;;;4934406;29;20039;-41
2022/01/29 04:41:50;;;;;;;15.52;2.00;;;;;;;;;;4933933;29;20070;-36
2022/01/29 04:44:17;;;;;;;6.18;1.58;;;;;;;;;;4934573;29;20055;-36
2022/01/29 04:46:45;;;;;;;8.30;1.50;;;;;;;;;;4934276;29;20035;-39
2022/01/29 04:49:12;;;;;;;8.40;1.75;;;;;;;;;;4932632;29;20074;-39
2022/01/29 04:51:39;;;;;;;14.43;2.35;;;;;;;;;;4933969;29;20080;-37
2022/01/29 04:54:06;;;;;;;9.55;1.42;;;;;;;;;;4933309;29;20090;-41
2022/01/29 04:56:34;;;;;;;10.15;1.63;;;;;;;;;;4933290;29;20031;-38
2022/01/29 04:59:01;;;;;;;5.93;1.60;;;;;;;;;;4917233;29;20044;-36
2022/01/29 05:01:28;;;;;;;10.35;1.73;;;;;;;;;;4932464;29;20028;-34
2022/01/29 05:03:55;;;;;;;4.72;1.30;;;;;;;;;;4933771;29;20035;-35
2022/01/29 05:06:22;;;;;;;15.98;1.88;;;;;;;;;;4934217;29;20070;-33
2022/01/29 05:08:49;;;;;;;10.30;1.50;;;;;;;;;;4934630;29;20074;-34
2022/01/29 05:11:17;;;;;;;6.35;1.73;;;;;;;;;;4934801;29;20390;-41
2022/01/29 05:13:44;;;;;;;10.18;1.70;;;;;;;;;;4934803;29;20047;-41
2022/01/29 05:16:36;;;;;;;8.48;2.00;;;;;;;;;;4933458;29;20082;-42
2022/01/29 05:27:19;;;;;;;4.57;1.20;;;;;;;;;;4934218;29;20127;-39
2022/01/29 05:29:46;;;;;;;9.25;1.77;;;;;;;;;;4934272;29;20027;-38
2022/01/29 05:32:15;;;;;;;9.45;1.45;;;;;;;;;;4934545;29;20031;-38
2022/01/29 05:34:42;;;;;;;6.43;1.50;;;;;;;;;;4933876;29;20036;-39
2022/01/29 05:37:09;;;;;;;4.60;0.98;;;;;;;;;;4934602;29;20111;-40
2022/01/29 05:39:37;;;;;;;10.07;1.52;;;;;;;;;;4934458;29;20030;-39
2022/01/29 05:42:04;;;;;;;14.10;1.98;;;;;;;;;;4934184;29;20032;-36
2022/01/29 05:44:31;;;;;;;7.10;1.73;;;;;;;;;;4934563;29;20038;-42
2022/01/29 05:46:58;;;;;;;8.15;1.17;;;;;;;;;;4933681;29;20034;-41
2022/01/29 05:49:25;;;;;;;7.28;1.60;;;;;;;;;;4934626;29;20517;-36
2022/01/29 05:51:52;;;;;;;10.02;1.83;;;;;;;;;;4934037;29;20067;-41
2022/01/29 05:54:19;;;;;;;8.32;1.92;;;;;;;;;;4934246;29;20038;-36
2022/01/29 05:56:47;;;;;;;9.45;1.98;;;;;;;;;;4934580;29;20573;-41
2022/01/29 05:59:14;;;;;;;7.35;1.52;;;;;;;;;;4933257;29;20048;-37
2022/01/29 06:01:41;;;;;;;8.93;1.60;;;;;;;;;;4934351;29;20115;-38
2022/01/29 06:04:08;;;;;;;6.32;1.30;;;;;;;;;;4933785;29;20114;-37
2022/01/29 06:06:35;;;;;;;6.45;1.45;;;;;;;;;;4934018;29;20142;-38
2022/01/29 06:09:04;;;;;;;7.55;1.40;;;;;;;;;;4934043;29;20032;-37
2022/01/29 06:11:34;;;;;;;5.30;1.30;;;;;;;;;;4933757;29;20062;-36
2022/01/29 06:14:02;;;;;;;6.97;1.27;;;;;;;;;;4934217;29;20039;-38
2022/01/29 06:16:30;;;;;;;6.22;1.02;;;;;;;;;;4933816;29;20457;-37
2022/01/29 06:18:57;;;;;;;7.50;1.17;;;;;;;;;;4933990;29;20035;-39
2022/01/29 06:21:24;;;;;;;6.45;1.40;;;;;;;;;;4934040;29;20036;-40
2022/01/29 06:23:51;;;;;;;8.60;1.40;;;;;;;;;;4933554;29;20074;-37
2022/01/29 06:26:18;;;;;;;4.55;1.23;;;;;;;;;;4935138;29;20401;-38
2022/01/29 06:28:45;;;;;;;4.82;1.20;;;;;;;;;;4937782;29;20102;-40
2022/01/29 06:31:12;;;;;;;4.80;1.13;;;;;;;;;;4937773;29;20086;-36
2022/01/29 06:33:39;;;;;;;5.38;1.67;;;;;;;;;;4937602;29;20035;-40
2022/01/29 06:36:07;;;;;;;10.30;1.90;;;;;;;;;;4937404;29;20040;-42
2022/01/29 06:38:34;;;;;;;13.48;1.40;;;;;;;;;;4937788;29;20118;-38
2022/01/29 06:41:01;;;;;;;8.68;1.40;;;;;;;;;;4937382;29;20595;-38
2022/01/29 06:43:28;;;;;;;6.30;1.20;;;;;;;;;;4937347;29;20046;-41
2022/01/29 06:45:56;;;;;;;8.35;1.45;;;;;;;;;;4937343;29;20023;-37
2022/01/29 06:48:23;;;;;;;6.28;1.30;;;;;;;;;;4937092;29;20036;-39
2022/01/29 06:50:50;;;;;;;4.90;1.30;;;;;;;;;;4937608;29;20051;-40
2022/01/29 06:53:17;;;;;;;10.38;1.48;;;;;;;;;;4937093;29;20079;-38
2022/01/29 06:55:44;;;;;;;5.95;1.42;;;;;;;;;;4937438;29;20064;-40
2022/01/29 06:58:11;;;;;;;8.15;1.38;;;;;;;;;;4936914;29;20044;-38
2022/01/29 07:00:38;;;;;;;7.35;1.23;;;;;;;;;;4937062;29;20478;-41
2022/01/29 07:03:05;;;;;;;9.27;1.08;;;;;;;;;;4937073;29;20024;-39
2022/01/29 07:05:32;;;;;;;9.40;1.38;;;;;;;;;;4937255;29;20028;-38
2022/01/29 07:07:59;;;;;;;7.80;1.02;;;;;;;;;;4936813;29;20038;-36
2022/01/29 07:10:26;;;;;;;4.43;1.23;;;;;;;;;;4937072;29;20379;-39
2022/01/29 07:12:53;;;;;;;7.10;1.35;;;;;;;;;;4937063;29;20050;-39
2022/01/29 07:15:20;;;;;;;13.18;1.77;;;;;;;;;;4936293;29;20043;-41
2022/01/29 07:17:48;;;;;;;13.15;1.40;;;;;;;;;;5102425;22;20097;-41
2022/01/29 07:20:15;;;;;;;14.93;1.42;;;;;;;;;;4992692;28;20072;-43
2022/01/29 07:22:42;;;;;;;3.78;1.08;;;;;;;;;;4994496;28;20030;-43
2022/01/29 07:25:09;;;;;;;8.52;1.13;;;;;;;;;;4994898;28;20034;-43
2022/01/29 07:27:36;;;;;;;5.30;1.10;;;;;;;;;;4993843;28;20038;-43
2022/01/29 07:30:03;;;;;;;5.75;1.67;;;;;;;;;;4994497;28;20033;-42
2022/01/29 07:32:31;;;;;;;4.22;1.20;;;;;;;;;;4994572;28;20014;-43
2022/01/29 07:34:59;;;;;;;5.22;1.42;;;;;;;;;;4993876;28;20560;-43
2022/01/29 07:37:25;;;;;;;6.97;1.30;;;;;;;;;;4994104;28;20476;-43
2022/01/29 07:39:52;;;;;;;2.95;1.25;;;;;;;;;;4993119;28;20030;-42
2022/01/29 07:42:19;;;;;;;4.30;1.30;;;;;;;;;;4994323;28;20030;-43
2022/01/29 07:44:46;;;;;;;4.72;1.50;;;;;;;;;;4994020;28;20491;-42
2022/01/29 07:47:13;;;;;;;6.38;1.60;;;;;;;;;;4994350;28;20452;-42
2022/01/29 07:49:40;;;;;;;6.68;1.35;;;;;;;;;;4993886;28;20081;-44
2022/01/29 07:52:07;;;;;;;4.72;1.23;;;;;;;;;;4993889;28;20403;-40
2022/01/29 07:54:34;;;;;;;5.60;1.08;;;;;;;;;;4993824;28;20400;-42
2022/01/29 07:57:01;;;;;;;3.88;0.90;;;;;;;;;;4993985;28;20436;-43
2022/01/29 07:59:28;;;;;;;5.15;1.30;;;;;;;;;;4993931;28;20713;-43
2022/01/29 08:01:55;;;;;;;5.10;1.00;;;;;;;;;;4994267;28;20097;-42
2022/01/29 08:04:24;;;;;;;3.45;1.17;;;;;;;;;;4993755;28;20069;-42
2022/01/29 08:06:52;;;;;;;8.32;1.50;;;;;;;;;;4993775;28;20034;-42
2022/01/29 08:09:19;;;;;;;6.57;1.30;;;;;;;;;;4994544;28;20101;-40
2022/01/29 08:11:46;;;;;;;14.60;1.40;;;;;;;;;;4995529;28;20464;-41
2022/01/29 08:14:13;;;;;;;9.93;1.42;;;;;;;;;;4993340;28;20049;-40
2022/01/29 08:16:40;;;;;;;7.63;1.10;;;;;;;;;;4993266;28;20034;-41
2022/01/29 08:19:07;;;;;;;4.43;1.02;;;;;;;;;;4992387;28;20054;-41
2022/01/29 08:21:34;;;;;;;5.82;1.25;;;;;;;;;;4992845;28;20484;-40
2022/01/29 08:24:01;;;;;;;6.63;1.33;;;;;;;;;;4992437;28;20037;-41
2022/01/29 08:26:28;;;;;;;5.55;1.40;;;;;;;;;;4992717;28;20025;-40
2022/01/29 08:28:55;;;;;;;4.03;1.20;;;;;;;;;;4992245;28;20030;-41
2022/01/29 08:31:22;;;;;;;4.82;1.30;;;;;;;;;;4993263;28;20026;-40
2022/01/29 08:33:49;;;;;;;9.32;1.15;;;;;;;;;;4992850;28;20035;-41
2022/01/29 08:36:16;;;;;;;6.15;1.23;;;;;;;;;;4992370;28;20718;-40
2022/01/29 08:38:43;;;;;;;5.60;1.60;;;;;;;;;;4992564;28;20037;-40
2022/01/29 08:41:10;;;;;;;5.13;1.65;;;;;;;;;;4992269;28;20056;-41
2022/01/29 08:43:37;;;;;;;3.20;1.20;;;;;;;;;;4992686;28;20407;-40
2022/01/29 08:46:04;;;;;;;7.10;1.10;;;;;;;;;;4992627;28;20030;-40
2022/01/29 08:48:31;;;;;;;7.38;1.48;;;;;;;;;;4992114;28;20023;-40
2022/01/29 08:50:58;;;;;;;5.38;1.30;;;;;;;;;;4991232;28;20022;-41
2022/01/29 08:53:25;;;;;;;4.10;1.20;;;;;;;;;;4992362;28;20037;-41
2022/01/29 08:55:52;;;;;;;5.53;1.20;;;;;;;;;;4992830;28;20459;-40
2022/01/29 08:58:19;;;;;;;2.72;0.88;;;;;;;;;;4992063;28;20022;-40
2022/01/29 09:00:47;;;;;;;7.65;1.45;;;;;;;;;;4992736;28;20073;-40
2022/01/29 09:03:15;;;;;;;8.32;1.35;;;;;;;;;;4992533;28;20085;-40
2022/01/29 09:05:43;;;;;;;6.65;1.75;;;;;;;;;;4991679;28;20023;-40
2022/01/29 09:08:10;;;;;;;18.00;1.75;;;;;;;;;;4992495;28;20023;-40
2022/01/29 09:10:37;;;;;;;5.93;1.52;;;;;;;;;;4991720;28;20023;-41
2022/01/29 09:13:05;;;;;;;9.43;1.45;;;;;;;;;;4992366;28;20026;-41
2022/01/29 09:15:32;;;;;;;11.82;1.63;;;;;;;;;;4991585;28;20093;-40
2022/01/29 09:17:59;;;;;;;8.48;1.42;;;;;;;;;;4991925;28;20480;-40
2022/01/29 09:20:27;;;;;;;9.27;1.38;;;;;;;;;;4992226;28;20065;-41
2022/01/29 09:22:54;;;;;;;13.00;1.27;;;;;;;;;;4991821;28;20036;-41
2022/01/29 09:25:21;;;;;;;5.32;1.10;;;;;;;;;;4992763;28;20023;-41
2022/01/29 09:27:47;;;;;;;9.25;1.42;;;;;;;;;;4991939;28;20037;-41
2022/01/29 09:30:14;;;;;;;5.55;1.00;;;;;;;;;;4992645;28;20032;-40
2022/01/29 09:32:41;;;;;;;9.50;1.35;;;;;;;;;;4992387;28;20022;-41
2022/01/29 09:35:08;;;;;;;6.80;1.10;;;;;;;;;;4991692;28;20042;-41
2022/01/29 09:37:35;;;;;;;8.15;1.10;;;;;;;;;;4992491;28;20053;-40
2022/01/29 09:40:03;;;;;;;9.93;1.38;;;;;;;;;;4991916;28;20022;-40
2022/01/29 09:42:31;;;;;;;7.95;1.08;;;;;;;;;;4992066;28;20032;-41
2022/01/29 09:44:58;;;;;;;3.38;0.95;;;;;;;;;;4992204;28;20117;-40
2022/01/29 09:47:25;;;;;;;4.90;1.45;;;;;;;;;;4991475;28;20026;-41
2022/01/29 09:49:52;;;;;;;6.13;1.02;;;;;;;;;;4992299;28;20030;-40
2022/01/29 09:52:20;;;;;;;8.73;1.40;;;;;;;;;;4991860;28;20041;-41
2022/01/29 09:54:47;;;;;;;4.70;1.10;;;;;;;;;;4991717;28;20022;-41
2022/01/29 09:57:14;;;;;;;13.45;1.20;;;;;;;;;;4992185;28;20027;-40
2022/01/29 09:59:41;;;;;;;12.00;1.88;;;;;;;;;;4991238;28;20091;-40
2022/01/29 10:02:18;;;;;;;12.68;1.48;;;;;;;;;;4992107;28;20476;-40
2022/01/29 10:04:46;;;;;;;4.95;1.63;;;;;;;;;;4991410;28;20566;-40
2022/01/29 10:07:14;;;;;;;6.78;1.63;;;;;;;;;;4991858;28;20027;-41
2022/01/29 10:09:41;;;;;;;10.52;1.55;;;;;;;;;;4992158;28;20019;-40
2022/01/29 10:12:24;;;;;;;9.85;1.50;;;;;;;;;;4991283;28;20492;-41
2022/01/29 10:14:53;;;;;;;8.45;1.20;;;;;;;;;;4992101;28;20038;-40
2022/01/29 10:17:38;;;;;;;15.02;1.50;;;;;;;;;;4991311;28;20023;-41
2022/01/29 10:20:12;;;;;;;6.63;1.33;;;;;;;;;;4991889;28;20173;-41
2022/01/29 10:22:39;;;;;;;6.13;1.05;;;;;;;;;;4991741;28;20101;-41
2022/01/29 10:25:07;;;;;;;7.20;1.70;;;;;;;;;;4991230;28;20029;-40
2022/01/29 10:27:34;;;;;;;5.20;1.30;;;;;;;;;;4991951;28;20024;-41
2022/01/29 10:30:03;;;;;;;15.18;1.80;;;;;;;;;;4991541;28;20022;-41
2022/01/29 10:32:30;;;;;;;8.32;1.42;;;;;;;;;;4991643;28;20022;-41
2022/01/29 10:34:59;;;;;;;8.15;1.48;;;;;;;;;;4991252;28;20077;-41
2022/01/29 10:37:26;;;;;;;14.18;2.03;;;;;;;;;;4991517;28;20045;-41
2022/01/29 10:39:57;;;;;;;14.40;1.27;;;;;;;;;;4991305;28;20431;-40
2022/01/29 10:42:30;;;;;;;7.95;1.50;;;;;;;;;;4991351;28;20041;-40
2022/01/29 10:45:01;;;;;;;12.02;1.48;;;;;;;;;;4991615;28;20034;-40
2022/01/29 10:47:29;;;;;;;13.35;1.70;;;;;;;;;;4991335;28;20382;-40
2022/01/29 10:50:05;;;;;;;21.08;2.20;;;;;;;;;;4991560;28;20026;-40
2022/01/29 10:52:33;;;;;;;11.48;1.58;;;;;;;;;;4991294;28;20480;-40
2022/01/29 10:55:03;;;;;;;11.70;1.85;;;;;;;;;;4991115;28;20035;-40
2022/01/29 10:57:45;;;;;;;12.77;1.48;;;;;;;;;;4991348;28;20027;-41
2022/01/29 11:00:22;;;;;;;11.40;1.90;;;;;;;;;;4991349;28;20620;-41
2022/01/29 11:02:50;;;;;;;15.00;1.85;;;;;;;;;;4991397;28;20030;-41
2022/01/29 11:05:17;;;;;;;12.93;2.05;;;;;;;;;;4991218;28;20479;-41
2022/01/29 11:07:51;;;;;;;12.77;1.52;;;;;;;;;;4990814;28;20027;-40
2022/01/29 11:10:19;;;;;;;11.63;1.95;;;;;;;;;;4991196;28;20133;-40
2022/01/29 11:12:48;;;;;;;11.07;1.88;;;;;;;;;;4991210;28;20026;-41
2022/01/29 11:15:19;;;;;;;11.25;1.52;;;;;;;;;;4994934;28;20030;-41
2022/01/29 11:17:46;;;;;;;14.60;1.80;;;;;;;;;;4994060;28;20468;-41
2022/01/29 11:20:13;;;;;;;9.93;1.80;;;;;;;;;;4994686;28;20109;-40
2022/01/29 11:22:50;;;;;;;10.52;1.35;;;;;;;;;;4994458;28;20026;-40
2022/01/29 11:25:18;;;;;;;11.57;1.70;;;;;;;;;;4994549;28;20092;-40
2022/01/29 11:27:46;;;;;;;13.70;2.22;;;;;;;;;;4995248;28;20388;-40
2022/01/29 11:30:13;;;;;;;25.48;2.33;;;;;;;;;;4996490;28;20168;-41
2022/01/29 11:32:44;;;;;;;13.43;1.90;;;;;;;;;;4977550;28;20397;-41
2022/01/29 11:35:13;;;;;;;14.45;2.58;;;;;;;;;;4993765;28;20373;-41
2022/01/29 11:37:51;;;;;;;14.20;2.25;;;;;;;;;;4994610;28;20386;-40
2022/01/29 11:40:19;;;;;;;16.02;2.28;;;;;;;;;;4994627;28;20158;-40
2022/01/29 11:42:52;;;;;;;12.38;1.95;;;;;;;;;;4993561;28;20030;-40
2022/01/29 11:45:44;;;;;;;13.70;1.85;;;;;;;;;;4994648;28;20079;-40
2022/01/29 11:48:27;;;;;;;14.70;2.17;;;;;;;;;;4993516;28;20072;-41
2022/01/29 11:50:55;;;;;;;12.30;1.83;;;;;;;;;;4994418;28;20109;-40
2022/01/29 11:53:22;;;;;;;23.05;2.50;;;;;;;;;;4993800;28;20053;-40
2022/01/29 11:55:53;;;;;;;17.48;2.22;;;;;;;;;;4993925;28;20045;-40
2022/01/29 11:58:27;;;;;;;15.45;1.92;;;;;;;;;;4994235;28;20031;-40
2022/01/29 12:00:55;;;;;;;19.13;2.42;;;;;;;;;;4993169;28;20037;-41
2022/01/29 12:03:40;;;;;;;23.92;2.97;;;;;;;;;;4994297;28;20054;-40
2022/01/29 12:08:41;;;;;;;17.35;2.30;;;;;;;;;;4993523;28;20034;-41
2022/01/29 12:11:11;;;;;;;20.35;2.30;;;;;;;;;;4994007;28;20045;-41
2022/01/29 12:13:40;;;;;;;21.15;2.78;;;;;;;;;;4992986;28;20038;-40
2022/01/29 12:16:09;;;;;;;14.07;2.13;;;;;;;;;;4993899;28;20493;-40
2022/01/29 12:18:36;;;;;;;17.13;2.83;;;;;;;;;;4993306;28;20149;-41
2022/01/29 12:21:05;;;;;;;21.65;2.85;;;;;;;;;;4993268;28;20122;-41
2022/01/29 12:23:45;;;;;;;21.98;3.33;;;;;;;;;;4993696;28;20350;-40
2022/01/29 12:26:12;;;;;;;19.88;2.50;;;;;;;;;;4992464;28;20038;-41
2022/01/29 12:28:48;;;;;;;23.20;2.85;;;;;;;;;;4992097;28;20041;-41
2022/01/29 12:31:17;;;;;;;22.40;3.00;;;;;;;;;;4992232;28;20462;-41
2022/01/29 12:33:44;;;;;;;26.10;3.35;;;;;;;;;;4992333;28;20084;-41
2022/01/29 12:36:11;;;;;;;27.88;2.97;;;;;;;;;;4992391;28;20054;-41
2022/01/29 12:38:42;;;;;;;27.50;3.35;;;;;;;;;;4992184;28;20443;-41
2022/01/29 12:41:09;;;;;;;31.98;3.10;;;;;;;;;;4992531;28;20389;-41
2022/01/29 12:43:52;;;;;;;45.38;4.57;;;;;;;;;;4992596;28;20451;-41
2022/01/29 12:46:20;;;;;;;37.13;4.10;;;;;;;;;;4993279;28;20035;-41
2022/01/29 12:49:10;;;;;;;23.73;3.15;;;;;;;;;;4992640;28;20043;-41
2022/01/29 12:51:46;;;;;;;37.58;3.35;;;;;;;;;;4993327;28;20129;-41
2022/01/29 12:54:13;;;;;;;36.88;4.50;;;;;;;;;;4992735;28;20057;-40
2022/01/29 12:56:40;;;;;;;33.90;3.92;;;;;;;;;;4993053;28;20042;-41
2022/01/29 12:59:11;;;;;;;37.05;3.90;;;;;;;;;;4992201;28;20096;-40
2022/01/29 13:01:39;;;;;;;32.08;3.80;;;;;;;;;;4992628;28;20049;-40
2022/01/29 13:04:07;;;;;;;31.73;4.13;;;;;;;;;;4992806;28;20077;-40
2022/01/29 13:06:34;;;;;;;31.00;3.35;;;;;;;;;;4992337;28;20030;-41
2022/01/29 13:09:16;;;;;;;27.95;3.55;;;;;;;;;;4992623;28;20034;-41
2022/01/29 13:11:43;;;;;;;21.65;3.60;;;;;;;;;;4992226;28;20471;-41
2022/01/29 13:14:17;;;;;;;28.48;4.00;;;;;;;;;;4992597;28;20031;-40
2022/01/29 13:16:45;;;;;;;28.95;3.53;;;;;;;;;;4992345;28;20026;-41
2022/01/29 13:19:12;;;;;;;22.05;3.08;;;;;;;;;;4992085;28;20054;-41
2022/01/29 13:21:39;;;;;;;30.70;3.65;;;;;;;;;;4992808;28;20087;-40
2022/01/29 13:24:29;;;;;;;21.15;3.42;;;;;;;;;;4991796;28;20036;-40
2022/01/29 13:27:09;;;;;;;24.73;3.80;;;;;;;;;;4992112;28;20045;-41
2022/01/29 13:29:40;;;;;;;23.58;3.22;;;;;;;;;;4992087;28;20396;-40
2022/01/29 13:32:09;;;;;;;24.50;3.55;;;;;;;;;;4992256;28;20519;-41
2022/01/29 13:34:37;;;;;;;27.80;4.18;;;;;;;;;;4992264;28;20048;-41
2022/01/29 13:37:24;;;;;;;20.98;3.20;;;;;;;;;;4991449;28;20038;-41
2022/01/29 13:39:51;;;;;;;22.17;3.65;;;;;;;;;;4992580;28;20026;-41
2022/01/29 13:42:20;;;;;;;18.85;3.47;;;;;;;;;;4991789;28;20023;-40
2022/01/29 13:45:05;;;;;;;21.95;3.30;;;;;;;;;;4992244;28;20045;-42
2022/01/29 13:47:33;;;;;;;19.40;3.05;;;;;;;;;;4991875;28;20566;-41
2022/01/29 13:50:20;;;;;;;21.08;3.05;;;;;;;;;;4992227;28;20038;-40
2022/01/29 13:53:00;;;;;;;20.40;3.38;;;;;;;;;;4992700;28;20026;-41
2022/01/29 13:55:27;;;;;;;31.85;3.70;;;;;;;;;;4993349;28;20480;-41
2022/01/29 13:58:03;;;;;;;21.58;3.05;;;;;;;;;;4991744;28;20039;-41
2022/01/29 14:00:50;;;;;;;34.63;4.20;;;;;;;;;;4991032;28;20398;-41
2022/01/29 14:03:17;;;;;;;32.03;4.18;;;;;;;;;;4991350;28;20030;-41
2022/01/29 14:05:44;;;;;;;31.13;4.25;;;;;;;;;;4991437;28;20019;-41
2022/01/29 14:08:20;;;;;;;29.27;4.40;;;;;;;;;;4991730;28;20419;-41
2022/01/29 14:10:57;;;;;;;29.38;4.22;;;;;;;;;;4990800;28;20046;-41
2022/01/29 14:13:30;;;;;;;28.98;3.90;;;;;;;;;;4991468;28;20113;-41
2022/01/29 14:15:57;;;;;;;25.17;3.80;;;;;;;;;;4991520;28;20485;-41
2022/01/29 14:18:32;;;;;;;28.52;3.88;;;;;;;;;;4990744;28;20420;-40
2022/01/29 14:20:59;;;;;;;34.95;4.95;;;;;;;;;;4990880;28;20081;-41
2022/01/29 14:23:26;;;;;;;25.23;3.42;;;;;;;;;;4991648;28;20034;-41
2022/01/29 14:25:54;;;;;;;24.90;3.80;;;;;;;;;;4991287;28;20034;-41
2022/01/29 14:28:22;;;;;;;27.40;4.47;;;;;;;;;;4991286;28;20030;-41
2022/01/29 14:30:49;;;;;;;28.92;4.65;;;;;;;;;;4991661;28;20038;-40
2022/01/29 14:33:17;;;;;;;26.35;3.75;;;;;;;;;;4990616;28;20104;-41
2022/01/29 14:35:44;;;;;;;22.10;3.78;;;;;;;;;;4991443;28;20142;-41
2022/01/29 14:38:11;;;;;;;25.48;4.63;;;;;;;;;;4991330;28;20072;-40
2022/01/29 14:40:38;;;;;;;30.40;4.53;;;;;;;;;;4991671;28;20121;-40
2022/01/29 14:43:05;;;;;;;24.48;3.78;;;;;;;;;;4990961;28;20084;-40
2022/01/29 14:45:32;;;;;;;28.77;4.68;;;;;;;;;;4990664;28;20022;-41
2022/01/29 14:47:59;;;;;;;21.80;3.60;;;;;;;;;;4991915;28;20027;-41
2022/01/29 14:50:29;;;;;;;28.27;3.85;;;;;;;;;;4994855;28;20038;-40
2022/01/29 14:52:56;;;;;;;33.05;4.75;;;;;;;;;;4995164;28;20042;-41